sensor_id;sensor_type;location;lat;lon;timestamp;temperature;humidity
66271;DHT22;53063;39.614;8.814;2023-04-25T00:01:45;12.60;99.90
66271;DHT22;53063;39.614;8.814;2023-04-25T00:04:11;12.50;99.90
66271;DHT22;53063;39.614;8.814;2023-04-25T00:06:37;12.50;99.90
66271;DHT22;53063;39.614;8.814;2023-04-25T00:09:04;12.40;99.90
66271;DHT22;53063;39.614;8.814;2023-04-25T00:11:33;12.40;99.90
66271;DHT22;53063;39.614;8.814;2023-04-25T00:13:59;12.50;99.90
66271;DHT22;53063;39.614;8.814;2023-04-25T00:16:27;12.60;99.90
66271;DHT22;53063;39.614;8.814;2023-04-25T00:18:54;12.50;99.90
66271;DHT22;53063;39.614;8.814;2023-04-25T00:21:21;12.50;99.90
66271;DHT22;53063;39.614;8.814;2023-04-25T00:23:47;12.50;99.90
66271;DHT22;53063;39.614;8.814;2023-04-25T00:26:13;12.50;99.90
66271;DHT22;53063;39.614;8.814;2023-04-25T00:28:40;12.40;99.90
66271;DHT22;53063;39.614;8.814;2023-04-25T00:31:06;12.40;99.90
66271;DHT22;53063;39.614;8.814;2023-04-25T00:33:32;12.50;99.90
66271;DHT22;53063;39.614;8.814;2023-04-25T00:35:58;12.50;99.90
66271;DHT22;53063;39.614;8.814;2023-04-25T00:38:24;12.30;99.90
66271;DHT22;53063;39.614;8.814;2023-04-25T00:40:50;12.10;99.90
66271;DHT22;53063;39.614;8.814;2023-04-25T00:43:16;12.10;99.90
66271;DHT22;53063;39.614;8.814;2023-04-25T00:45:43;12.10;99.90
66271;DHT22;53063;39.614;8.814;2023-04-25T00:48:09;12.00;99.90
66271;DHT22;53063;39.614;8.814;2023-04-25T00:50:35;12.00;99.90
66271;DHT22;53063;39.614;8.814;2023-04-25T00:53:02;12.10;99.90
66271;DHT22;53063;39.614;8.814;2023-04-25T00:55:29;12.00;99.90
66271;DHT22;53063;39.614;8.814;2023-04-25T00:57:57;12.10;99.90
66271;DHT22;53063;39.614;8.814;2023-04-25T01:00:23;12.10;99.90
66271;DHT22;53063;39.614;8.814;2023-04-25T01:02:49;12.20;99.90
66271;DHT22;53063;39.614;8.814;2023-04-25T01:05:15;12.20;99.90
66271;DHT22;53063;39.614;8.814;2023-04-25T01:07:42;12.20;99.90
66271;DHT22;53063;39.614;8.814;2023-04-25T01:10:09;12.20;99.90
66271;DHT22;53063;39.614;8.814;2023-04-25T01:12:35;12.20;99.90
66271;DHT22;53063;39.614;8.814;2023-04-25T01:15:01;12.10;99.90
66271;DHT22;53063;39.614;8.814;2023-04-25T01:17:28;12.00;99.90
66271;DHT22;53063;39.614;8.814;2023-04-25T01:19:54;12.00;99.90
66271;DHT22;53063;39.614;8.814;2023-04-25T01:22:20;12.00;99.90
66271;DHT22;53063;39.614;8.814;2023-04-25T01:24:47;12.00;99.90
66271;DHT22;53063;39.614;8.814;2023-04-25T01:27:13;12.00;99.90
66271;DHT22;53063;39.614;8.814;2023-04-25T01:29:39;12.00;99.90
66271;DHT22;53063;39.614;8.814;2023-04-25T01:32:06;12.00;99.90
66271;DHT22;53063;39.614;8.814;2023-04-25T01:34:32;12.00;99.90
66271;DHT22;53063;39.614;8.814;2023-04-25T01:36:59;12.10;99.90
66271;DHT22;53063;39.614;8.814;2023-04-25T01:39:28;12.20;99.90
66271;DHT22;53063;39.614;8.814;2023-04-25T01:41:54;12.10;99.90
66271;DHT22;53063;39.614;8.814;2023-04-25T01:44:20;12.20;99.90
66271;DHT22;53063;39.614;8.814;2023-04-25T01:46:46;12.10;99.90
66271;DHT22;53063;39.614;8.814;2023-04-25T01:49:12;12.10;99.90
66271;DHT22;53063;39.614;8.814;2023-04-25T01:51:40;12.10;99.90
66271;DHT22;53063;39.614;8.814;2023-04-25T01:54:06;12.10;99.90
66271;DHT22;53063;39.614;8.814;2023-04-25T01:56:33;12.10;99.90
66271;DHT22;53063;39.614;8.814;2023-04-25T01:59:03;12.30;99.90
66271;DHT22;53063;39.614;8.814;2023-04-25T02:01:56;12.30;99.90
66271;DHT22;53063;39.614;8.814;2023-04-25T02:04:27;12.20;99.90
66271;DHT22;53063;39.614;8.814;2023-04-25T02:06:54;12.10;99.90
66271;DHT22;53063;39.614;8.814;2023-04-25T02:09:21;12.20;99.90
66271;DHT22;53063;39.614;8.814;2023-04-25T02:11:52;12.20;99.90
66271;DHT22;53063;39.614;8.814;2023-04-25T02:14:34;12.20;99.90
66271;DHT22;53063;39.614;8.814;2023-04-25T02:17:26;12.20;99.90
66271;DHT22;53063;39.614;8.814;2023-04-25T02:19:52;12.20;99.90
66271;DHT22;53063;39.614;8.814;2023-04-25T02:22:18;12.20;99.90
66271;DHT22;53063;39.614;8.814;2023-04-25T02:24:46;12.30;99.90
66271;DHT22;53063;39.614;8.814;2023-04-25T02:27:12;12.30;99.90
66271;DHT22;53063;39.614;8.814;2023-04-25T02:29:38;12.20;99.90
66271;DHT22;53063;39.614;8.814;2023-04-25T02:32:04;12.00;99.90
66271;DHT22;53063;39.614;8.814;2023-04-25T02:34:30;12.00;99.90
66271;DHT22;53063;39.614;8.814;2023-04-25T02:37:00;11.90;99.90
66271;DHT22;53063;39.614;8.814;2023-04-25T02:39:26;11.90;99.90
66271;DHT22;53063;39.614;8.814;2023-04-25T02:41:52;11.90;99.90
66271;DHT22;53063;39.614;8.814;2023-04-25T02:44:18;12.00;99.90
66271;DHT22;53063;39.614;8.814;2023-04-25T02:46:45;12.00;99.90
66271;DHT22;53063;39.614;8.814;2023-04-25T02:49:11;12.00;99.90
66271;DHT22;53063;39.614;8.814;2023-04-25T02:51:37;12.00;99.90
66271;DHT22;53063;39.614;8.814;2023-04-25T02:54:03;12.00;99.90
66271;DHT22;53063;39.614;8.814;2023-04-25T02:56:33;12.00;99.90
66271;DHT22;53063;39.614;8.814;2023-04-25T02:58:59;12.10;99.90
66271;DHT22;53063;39.614;8.814;2023-04-25T03:01:25;12.10;99.90
66271;DHT22;53063;39.614;8.814;2023-04-25T03:03:51;12.10;99.90
66271;DHT22;53063;39.614;8.814;2023-04-25T03:06:17;12.10;99.90
66271;DHT22;53063;39.614;8.814;2023-04-25T03:08:43;12.10;99.90
66271;DHT22;53063;39.614;8.814;2023-04-25T03:11:10;12.20;99.90
66271;DHT22;53063;39.614;8.814;2023-04-25T03:13:36;12.10;99.90
66271;DHT22;53063;39.614;8.814;2023-04-25T03:16:02;12.20;99.90
66271;DHT22;53063;39.614;8.814;2023-04-25T03:18:29;12.10;99.90
66271;DHT22;53063;39.614;8.814;2023-04-25T03:20:55;12.00;99.90
66271;DHT22;53063;39.614;8.814;2023-04-25T03:23:21;12.10;99.90
66271;DHT22;53063;39.614;8.814;2023-04-25T03:25:47;12.10;99.90
66271;DHT22;53063;39.614;8.814;2023-04-25T03:28:13;12.00;99.90
66271;DHT22;53063;39.614;8.814;2023-04-25T03:30:39;12.10;99.90
66271;DHT22;53063;39.614;8.814;2023-04-25T03:33:05;12.00;99.90
66271;DHT22;53063;39.614;8.814;2023-04-25T03:35:31;12.00;99.90
66271;DHT22;53063;39.614;8.814;2023-04-25T03:37:57;12.00;99.90
66271;DHT22;53063;39.614;8.814;2023-04-25T03:40:28;12.00;99.90
66271;DHT22;53063;39.614;8.814;2023-04-25T03:43:32;12.00;99.90
66271;DHT22;53063;39.614;8.814;2023-04-25T03:46:04;12.00;99.90
66271;DHT22;53063;39.614;8.814;2023-04-25T03:48:29;12.00;99.90
66271;DHT22;53063;39.614;8.814;2023-04-25T03:50:55;12.10;99.90
66271;DHT22;53063;39.614;8.814;2023-04-25T03:53:21;12.10;99.90
66271;DHT22;53063;39.614;8.814;2023-04-25T03:56:17;12.10;99.90
66271;DHT22;53063;39.614;8.814;2023-04-25T03:58:45;12.10;99.90
66271;DHT22;53063;39.614;8.814;2023-04-25T04:01:13;12.10;99.90
66271;DHT22;53063;39.614;8.814;2023-04-25T04:03:39;12.20;99.90
66271;DHT22;53063;39.614;8.814;2023-04-25T04:06:06;12.20;99.90
66271;DHT22;53063;39.614;8.814;2023-04-25T04:08:36;12.30;99.90
66271;DHT22;53063;39.614;8.814;2023-04-25T04:11:02;12.30;99.90
66271;DHT22;53063;39.614;8.814;2023-04-25T04:13:29;12.30;99.90
66271;DHT22;53063;39.614;8.814;2023-04-25T04:15:55;12.40;99.90
66271;DHT22;53063;39.614;8.814;2023-04-25T04:18:22;12.40;99.90
66271;DHT22;53063;39.614;8.814;2023-04-25T04:20:48;12.40;99.90
66271;DHT22;53063;39.614;8.814;2023-04-25T04:23:14;12.40;99.90
66271;DHT22;53063;39.614;8.814;2023-04-25T04:25:40;12.40;99.90
66271;DHT22;53063;39.614;8.814;2023-04-25T04:28:17;12.40;99.90
66271;DHT22;53063;39.614;8.814;2023-04-25T04:31:04;12.20;99.90
66271;DHT22;53063;39.614;8.814;2023-04-25T04:33:30;12.30;99.90
66271;DHT22;53063;39.614;8.814;2023-04-25T04:36:00;12.30;99.90
66271;DHT22;53063;39.614;8.814;2023-04-25T04:38:27;12.40;99.90
66271;DHT22;53063;39.614;8.814;2023-04-25T04:40:58;12.40;99.90
66271;DHT22;53063;39.614;8.814;2023-04-25T04:43:31;12.40;99.90
66271;DHT22;53063;39.614;8.814;2023-04-25T04:46:07;12.40;99.90
66271;DHT22;53063;39.614;8.814;2023-04-25T04:48:56;12.40;99.90
66271;DHT22;53063;39.614;8.814;2023-04-25T04:51:40;12.30;99.90
66271;DHT22;53063;39.614;8.814;2023-04-25T04:54:31;12.30;99.90
66271;DHT22;53063;39.614;8.814;2023-04-25T04:57:11;12.20;99.90
66271;DHT22;53063;39.614;8.814;2023-04-25T04:59:49;12.30;99.90
66271;DHT22;53063;39.614;8.814;2023-04-25T05:02:45;12.30;99.90
66271;DHT22;53063;39.614;8.814;2023-04-25T05:05:34;12.40;99.90
66271;DHT22;53063;39.614;8.814;2023-04-25T05:08:32;12.50;99.90
66271;DHT22;53063;39.614;8.814;2023-04-25T05:11:24;12.60;99.90
66271;DHT22;53063;39.614;8.814;2023-04-25T05:14:05;12.60;99.90
66271;DHT22;53063;39.614;8.814;2023-04-25T05:16:43;12.70;99.90
66271;DHT22;53063;39.614;8.814;2023-04-25T05:19:35;12.70;99.90
66271;DHT22;53063;39.614;8.814;2023-04-25T05:22:36;12.80;99.90
66271;DHT22;53063;39.614;8.814;2023-04-25T05:25:13;12.70;99.90
66271;DHT22;53063;39.614;8.814;2023-04-25T05:27:59;12.30;99.90
66271;DHT22;53063;39.614;8.814;2023-04-25T05:30:44;12.30;99.90
66271;DHT22;53063;39.614;8.814;2023-04-25T05:33:15;12.30;99.90
66271;DHT22;53063;39.614;8.814;2023-04-25T05:35:41;12.50;99.90
66271;DHT22;53063;39.614;8.814;2023-04-25T05:38:08;12.60;99.90
66271;DHT22;53063;39.614;8.814;2023-04-25T05:40:53;12.60;99.90
66271;DHT22;53063;39.614;8.814;2023-04-25T05:43:38;12.70;99.90
66271;DHT22;53063;39.614;8.814;2023-04-25T05:46:20;12.80;99.90
66271;DHT22;53063;39.614;8.814;2023-04-25T05:49:22;12.80;99.90
66271;DHT22;53063;39.614;8.814;2023-04-25T05:52:11;13.00;99.90
66271;DHT22;53063;39.614;8.814;2023-04-25T05:54:37;13.30;99.90
66271;DHT22;53063;39.614;8.814;2023-04-25T05:57:03;13.20;99.90
66271;DHT22;53063;39.614;8.814;2023-04-25T05:59:30;13.60;99.90
66271;DHT22;53063;39.614;8.814;2023-04-25T06:01:56;14.00;99.90
66271;DHT22;53063;39.614;8.814;2023-04-25T06:04:22;14.30;99.90
66271;DHT22;53063;39.614;8.814;2023-04-25T06:06:48;14.60;99.90
66271;DHT22;53063;39.614;8.814;2023-04-25T06:09:14;14.80;99.90
66271;DHT22;53063;39.614;8.814;2023-04-25T06:11:40;14.70;99.90
66271;DHT22;53063;39.614;8.814;2023-04-25T06:14:07;15.10;99.90
66271;DHT22;53063;39.614;8.814;2023-04-25T06:16:35;15.60;99.90
66271;DHT22;53063;39.614;8.814;2023-04-25T06:19:01;15.70;99.90
66271;DHT22;53063;39.614;8.814;2023-04-25T06:21:27;15.90;98.90
66271;DHT22;53063;39.614;8.814;2023-04-25T06:23:53;15.80;98.60
66271;DHT22;53063;39.614;8.814;2023-04-25T06:26:21;16.50;99.30
66271;DHT22;53063;39.614;8.814;2023-04-25T06:28:48;18.20;94.10
66271;DHT22;53063;39.614;8.814;2023-04-25T06:31:14;19.20;85.20
66271;DHT22;53063;39.614;8.814;2023-04-25T06:33:42;19.20;81.70
66271;DHT22;53063;39.614;8.814;2023-04-25T06:36:08;19.60;79.70
66271;DHT22;53063;39.614;8.814;2023-04-25T06:38:36;20.00;79.00
66271;DHT22;53063;39.614;8.814;2023-04-25T06:41:02;20.30;78.30
66271;DHT22;53063;39.614;8.814;2023-04-25T06:43:32;20.50;76.20
66271;DHT22;53063;39.614;8.814;2023-04-25T06:46:25;21.00;74.60
66271;DHT22;53063;39.614;8.814;2023-04-25T06:48:51;20.70;73.80
66271;DHT22;53063;39.614;8.814;2023-04-25T06:51:18;20.70;74.30
66271;DHT22;53063;39.614;8.814;2023-04-25T06:53:45;21.10;72.60
66271;DHT22;53063;39.614;8.814;2023-04-25T06:56:22;21.50;71.10
66271;DHT22;53063;39.614;8.814;2023-04-25T06:58:59;21.80;69.40
66271;DHT22;53063;39.614;8.814;2023-04-25T07:01:31;21.30;70.60
66271;DHT22;53063;39.614;8.814;2023-04-25T07:04:00;21.50;69.50
66271;DHT22;53063;39.614;8.814;2023-04-25T07:06:27;22.00;67.50
66271;DHT22;53063;39.614;8.814;2023-04-25T07:08:54;23.20;64.30
66271;DHT22;53063;39.614;8.814;2023-04-25T07:11:21;23.30;61.70
66271;DHT22;53063;39.614;8.814;2023-04-25T07:13:47;22.90;60.80
66271;DHT22;53063;39.614;8.814;2023-04-25T07:16:13;22.60;61.10
66271;DHT22;53063;39.614;8.814;2023-04-25T07:18:39;22.80;60.30
66271;DHT22;53063;39.614;8.814;2023-04-25T07:21:05;23.20;59.50
66271;DHT22;53063;39.614;8.814;2023-04-25T07:23:33;23.50;58.70
66271;DHT22;53063;39.614;8.814;2023-04-25T07:26:01;23.80;59.20
66271;DHT22;53063;39.614;8.814;2023-04-25T07:28:29;23.60;56.90
66271;DHT22;53063;39.614;8.814;2023-04-25T07:30:55;22.80;59.00
66271;DHT22;53063;39.614;8.814;2023-04-25T07:33:21;21.60;62.00
66271;DHT22;53063;39.614;8.814;2023-04-25T07:35:46;20.70;65.00
66271;DHT22;53063;39.614;8.814;2023-04-25T07:38:13;20.40;66.70
66271;DHT22;53063;39.614;8.814;2023-04-25T07:40:39;20.40;65.70
66271;DHT22;53063;39.614;8.814;2023-04-25T07:43:07;20.70;66.30
66271;DHT22;53063;39.614;8.814;2023-04-25T07:45:46;21.00;65.20
66271;DHT22;53063;39.614;8.814;2023-04-25T07:48:17;21.10;65.20
66271;DHT22;53063;39.614;8.814;2023-04-25T07:50:45;21.20;65.10
66271;DHT22;53063;39.614;8.814;2023-04-25T07:53:11;21.50;59.00
66271;DHT22;53063;39.614;8.814;2023-04-25T07:55:44;21.50;61.70
66271;DHT22;53063;39.614;8.814;2023-04-25T07:58:16;21.30;63.70
66271;DHT22;53063;39.614;8.814;2023-04-25T08:00:47;21.30;65.00
66271;DHT22;53063;39.614;8.814;2023-04-25T08:03:28;21.70;62.70
66271;DHT22;53063;39.614;8.814;2023-04-25T08:05:55;22.00;62.60
66271;DHT22;53063;39.614;8.814;2023-04-25T08:08:22;22.20;61.90
66271;DHT22;53063;39.614;8.814;2023-04-25T08:10:48;22.40;60.80
66271;DHT22;53063;39.614;8.814;2023-04-25T08:13:15;22.40;58.20
66271;DHT22;53063;39.614;8.814;2023-04-25T08:15:41;22.50;58.50
66271;DHT22;53063;39.614;8.814;2023-04-25T08:18:07;22.10;59.90
66271;DHT22;53063;39.614;8.814;2023-04-25T08:20:34;22.10;61.10
66271;DHT22;53063;39.614;8.814;2023-04-25T08:23:02;22.40;61.10
66271;DHT22;53063;39.614;8.814;2023-04-25T08:25:48;22.60;62.40
66271;DHT22;53063;39.614;8.814;2023-04-25T08:28:17;22.20;61.30
66271;DHT22;53063;39.614;8.814;2023-04-25T08:30:44;22.10;60.80
66271;DHT22;53063;39.614;8.814;2023-04-25T08:33:13;22.10;62.50
66271;DHT22;53063;39.614;8.814;2023-04-25T08:36:05;22.40;64.00
66271;DHT22;53063;39.614;8.814;2023-04-25T08:38:32;22.60;59.60
66271;DHT22;53063;39.614;8.814;2023-04-25T08:41:00;22.60;60.00
66271;DHT22;53063;39.614;8.814;2023-04-25T08:43:29;22.80;61.70
66271;DHT22;53063;39.614;8.814;2023-04-25T08:45:58;23.00;61.10
66271;DHT22;53063;39.614;8.814;2023-04-25T08:48:40;23.30;59.90
66271;DHT22;53063;39.614;8.814;2023-04-25T08:51:07;23.40;59.80
66271;DHT22;53063;39.614;8.814;2023-04-25T08:53:34;23.40;58.00
66271;DHT22;53063;39.614;8.814;2023-04-25T08:56:03;23.50;58.90
66271;DHT22;53063;39.614;8.814;2023-04-25T08:58:35;23.60;57.20
66271;DHT22;53063;39.614;8.814;2023-04-25T09:01:01;23.80;58.90
66271;DHT22;53063;39.614;8.814;2023-04-25T09:03:32;23.20;59.70
66271;DHT22;53063;39.614;8.814;2023-04-25T09:05:58;23.20;60.70
66271;DHT22;53063;39.614;8.814;2023-04-25T09:08:24;23.60;58.90
66271;DHT22;53063;39.614;8.814;2023-04-25T09:10:50;23.60;59.80
66271;DHT22;53063;39.614;8.814;2023-04-25T09:13:25;23.60;58.00
66271;DHT22;53063;39.614;8.814;2023-04-25T09:16:11;23.50;55.80
66271;DHT22;53063;39.614;8.814;2023-04-25T09:18:55;23.30;57.10
66271;DHT22;53063;39.614;8.814;2023-04-25T09:21:22;23.20;56.50
66271;DHT22;53063;39.614;8.814;2023-04-25T09:23:49;23.50;55.20
66271;DHT22;53063;39.614;8.814;2023-04-25T09:26:19;23.90;53.20
66271;DHT22;53063;39.614;8.814;2023-04-25T09:28:46;24.10;52.30
66271;DHT22;53063;39.614;8.814;2023-04-25T09:31:22;24.10;62.90
66271;DHT22;53063;39.614;8.814;2023-04-25T09:34:01;24.10;54.40
66271;DHT22;53063;39.614;8.814;2023-04-25T09:36:30;24.00;55.20
66271;DHT22;53063;39.614;8.814;2023-04-25T09:39:19;24.00;52.90
66271;DHT22;53063;39.614;8.814;2023-04-25T09:41:56;24.00;51.80
66271;DHT22;53063;39.614;8.814;2023-04-25T09:44:25;23.90;52.80
66271;DHT22;53063;39.614;8.814;2023-04-25T09:46:54;24.20;51.50
66271;DHT22;53063;39.614;8.814;2023-04-25T09:49:23;24.60;50.30
66271;DHT22;53063;39.614;8.814;2023-04-25T09:52:06;24.90;50.90
66271;DHT22;53063;39.614;8.814;2023-04-25T09:54:47;25.20;49.40
66271;DHT22;53063;39.614;8.814;2023-04-25T09:57:22;25.20;50.70
66271;DHT22;53063;39.614;8.814;2023-04-25T09:59:53;25.30;49.30
66271;DHT22;53063;39.614;8.814;2023-04-25T10:02:22;25.40;48.60
66271;DHT22;53063;39.614;8.814;2023-04-25T10:04:53;25.20;48.80
66271;DHT22;53063;39.614;8.814;2023-04-25T10:07:26;24.70;48.90
66271;DHT22;53063;39.614;8.814;2023-04-25T10:09:59;24.80;49.40
66271;DHT22;53063;39.614;8.814;2023-04-25T10:12:26;25.10;48.10
66271;DHT22;53063;39.614;8.814;2023-04-25T10:14:52;25.40;48.00
66271;DHT22;53063;39.614;8.814;2023-04-25T10:17:20;25.60;47.70
66271;DHT22;53063;39.614;8.814;2023-04-25T10:19:47;26.00;47.20
66271;DHT22;53063;39.614;8.814;2023-04-25T10:22:18;26.20;45.30
66271;DHT22;53063;39.614;8.814;2023-04-25T10:24:46;26.40;46.10
66271;DHT22;53063;39.614;8.814;2023-04-25T10:27:13;26.30;46.60
66271;DHT22;53063;39.614;8.814;2023-04-25T10:29:41;26.10;45.30
66271;DHT22;53063;39.614;8.814;2023-04-25T10:32:09;26.10;45.40
66271;DHT22;53063;39.614;8.814;2023-04-25T10:34:44;26.00;45.70
66271;DHT22;53063;39.614;8.814;2023-04-25T10:37:14;26.00;45.80
66271;DHT22;53063;39.614;8.814;2023-04-25T10:39:41;26.00;45.30
66271;DHT22;53063;39.614;8.814;2023-04-25T10:42:07;25.90;44.30
66271;DHT22;53063;39.614;8.814;2023-04-25T10:44:34;26.40;44.90
66271;DHT22;53063;39.614;8.814;2023-04-25T10:47:01;26.20;44.50
66271;DHT22;53063;39.614;8.814;2023-04-25T10:49:41;26.10;45.10
66271;DHT22;53063;39.614;8.814;2023-04-25T10:54:48;26.10;45.10
66271;DHT22;53063;39.614;8.814;2023-04-25T10:57:36;26.30;45.10
66271;DHT22;53063;39.614;8.814;2023-04-25T11:00:16;26.50;44.20
66271;DHT22;53063;39.614;8.814;2023-04-25T11:02:47;26.40;44.30
66271;DHT22;53063;39.614;8.814;2023-04-25T11:05:33;26.00;45.30
66271;DHT22;53063;39.614;8.814;2023-04-25T11:08:00;26.00;45.20
66271;DHT22;53063;39.614;8.814;2023-04-25T11:10:33;25.60;45.80
66271;DHT22;53063;39.614;8.814;2023-04-25T11:13:01;25.50;45.70
66271;DHT22;53063;39.614;8.814;2023-04-25T11:15:27;25.30;47.10
66271;DHT22;53063;39.614;8.814;2023-04-25T11:17:54;25.70;46.30
66271;DHT22;53063;39.614;8.814;2023-04-25T11:20:22;25.70;46.60
66271;DHT22;53063;39.614;8.814;2023-04-25T11:22:48;25.10;47.00
66271;DHT22;53063;39.614;8.814;2023-04-25T11:25:15;25.10;47.10
66271;DHT22;53063;39.614;8.814;2023-04-25T11:27:55;24.70;47.80
66271;DHT22;53063;39.614;8.814;2023-04-25T11:30:24;25.00;47.70
66271;DHT22;53063;39.614;8.814;2023-04-25T11:32:50;25.40;47.60
66271;DHT22;53063;39.614;8.814;2023-04-25T11:35:18;25.40;48.00
66271;DHT22;53063;39.614;8.814;2023-04-25T11:37:44;25.70;47.20
66271;DHT22;53063;39.614;8.814;2023-04-25T11:40:11;25.40;47.20
66271;DHT22;53063;39.614;8.814;2023-04-25T11:42:44;25.50;47.30
66271;DHT22;53063;39.614;8.814;2023-04-25T11:45:10;25.60;47.30
66271;DHT22;53063;39.614;8.814;2023-04-25T11:47:36;25.60;46.80
66271;DHT22;53063;39.614;8.814;2023-04-25T11:50:07;25.20;48.20
66271;DHT22;53063;39.614;8.814;2023-04-25T11:52:44;25.50;48.10
66271;DHT22;53063;39.614;8.814;2023-04-25T11:55:17;25.90;47.80
66271;DHT22;53063;39.614;8.814;2023-04-25T11:57:44;26.00;48.70
66271;DHT22;53063;39.614;8.814;2023-04-25T12:00:15;26.10;47.80
66271;DHT22;53063;39.614;8.814;2023-04-25T12:02:50;25.80;49.30
66271;DHT22;53063;39.614;8.814;2023-04-25T12:05:16;26.10;48.50
66271;DHT22;53063;39.614;8.814;2023-04-25T12:07:43;26.10;48.10
66271;DHT22;53063;39.614;8.814;2023-04-25T12:10:11;26.10;48.30
66271;DHT22;53063;39.614;8.814;2023-04-25T12:12:38;26.10;48.80
66271;DHT22;53063;39.614;8.814;2023-04-25T12:15:15;25.80;49.50
66271;DHT22;53063;39.614;8.814;2023-04-25T12:17:45;25.90;49.30
66271;DHT22;53063;39.614;8.814;2023-04-25T12:20:19;26.00;48.50
66271;DHT22;53063;39.614;8.814;2023-04-25T12:22:47;26.20;48.00
66271;DHT22;53063;39.614;8.814;2023-04-25T12:25:39;26.20;48.00
66271;DHT22;53063;39.614;8.814;2023-04-25T12:28:23;26.20;48.50
66271;DHT22;53063;39.614;8.814;2023-04-25T12:33:33;25.80;49.20
66271;DHT22;53063;39.614;8.814;2023-04-25T12:36:00;26.00;48.80
66271;DHT22;53063;39.614;8.814;2023-04-25T12:38:36;26.10;49.50
66271;DHT22;53063;39.614;8.814;2023-04-25T12:41:02;26.00;49.20
66271;DHT22;53063;39.614;8.814;2023-04-25T12:43:28;25.70;49.40
66271;DHT22;53063;39.614;8.814;2023-04-25T12:45:55;25.80;49.30
66271;DHT22;53063;39.614;8.814;2023-04-25T12:48:21;25.50;49.20
66271;DHT22;53063;39.614;8.814;2023-04-25T12:50:49;25.70;49.50
66271;DHT22;53063;39.614;8.814;2023-04-25T12:53:20;25.70;48.70
66271;DHT22;53063;39.614;8.814;2023-04-25T12:55:47;25.50;49.70
66271;DHT22;53063;39.614;8.814;2023-04-25T12:58:14;25.30;49.70
66271;DHT22;53063;39.614;8.814;2023-04-25T13:00:40;25.40;49.80
66271;DHT22;53063;39.614;8.814;2023-04-25T13:03:06;25.30;49.70
66271;DHT22;53063;39.614;8.814;2023-04-25T13:05:31;25.30;50.80
66271;DHT22;53063;39.614;8.814;2023-04-25T13:07:57;25.50;50.60
66271;DHT22;53063;39.614;8.814;2023-04-25T13:10:23;25.60;49.60
66271;DHT22;53063;39.614;8.814;2023-04-25T13:12:49;25.60;50.70
66271;DHT22;53063;39.614;8.814;2023-04-25T13:15:15;25.60;50.70
66271;DHT22;53063;39.614;8.814;2023-04-25T13:17:41;25.50;50.60
66271;DHT22;53063;39.614;8.814;2023-04-25T13:20:08;25.20;50.90
66271;DHT22;53063;39.614;8.814;2023-04-25T13:22:36;25.10;51.10
66271;DHT22;53063;39.614;8.814;2023-04-25T13:25:04;25.10;51.50
66271;DHT22;53063;39.614;8.814;2023-04-25T13:27:30;25.10;51.60
66271;DHT22;53063;39.614;8.814;2023-04-25T13:29:58;25.10;51.60
66271;DHT22;53063;39.614;8.814;2023-04-25T13:32:24;25.10;51.70
66271;DHT22;53063;39.614;8.814;2023-04-25T13:34:53;24.80;52.30
66271;DHT22;53063;39.614;8.814;2023-04-25T13:37:19;24.80;52.80
66271;DHT22;53063;39.614;8.814;2023-04-25T13:39:45;24.80;53.10
66271;DHT22;53063;39.614;8.814;2023-04-25T13:42:11;24.90;53.60
66271;DHT22;53063;39.614;8.814;2023-04-25T13:44:37;24.80;53.30
66271;DHT22;53063;39.614;8.814;2023-04-25T13:47:03;24.50;54.40
66271;DHT22;53063;39.614;8.814;2023-04-25T13:49:29;24.00;55.30
66271;DHT22;53063;39.614;8.814;2023-04-25T13:51:55;23.70;56.20
66271;DHT22;53063;39.614;8.814;2023-04-25T13:54:21;23.70;55.30
66271;DHT22;53063;39.614;8.814;2023-04-25T13:56:48;23.40;56.50
66271;DHT22;53063;39.614;8.814;2023-04-25T13:59:14;23.40;57.70
66271;DHT22;53063;39.614;8.814;2023-04-25T14:01:40;23.60;57.80
66271;DHT22;53063;39.614;8.814;2023-04-25T14:04:06;23.70;57.80
66271;DHT22;53063;39.614;8.814;2023-04-25T14:06:32;23.60;58.50
66271;DHT22;53063;39.614;8.814;2023-04-25T14:08:58;23.50;58.20
66271;DHT22;53063;39.614;8.814;2023-04-25T14:11:26;23.20;59.80
66271;DHT22;53063;39.614;8.814;2023-04-25T14:13:52;23.00;59.30
66271;DHT22;53063;39.614;8.814;2023-04-25T14:16:18;23.10;59.80
66271;DHT22;53063;39.614;8.814;2023-04-25T14:18:44;23.20;58.40
66271;DHT22;53063;39.614;8.814;2023-04-25T14:21:10;22.90;59.80
66271;DHT22;53063;39.614;8.814;2023-04-25T14:23:36;22.60;61.10
66271;DHT22;53063;39.614;8.814;2023-04-25T14:26:02;22.60;61.60
66271;DHT22;53063;39.614;8.814;2023-04-25T14:28:28;22.40;62.10
66271;DHT22;53063;39.614;8.814;2023-04-25T14:30:53;22.20;63.50
66271;DHT22;53063;39.614;8.814;2023-04-25T14:33:19;22.30;63.20
66271;DHT22;53063;39.614;8.814;2023-04-25T14:35:46;22.10;64.60
66271;DHT22;53063;39.614;8.814;2023-04-25T14:38:12;22.30;64.20
66271;DHT22;53063;39.614;8.814;2023-04-25T14:40:37;22.20;64.00
66271;DHT22;53063;39.614;8.814;2023-04-25T14:43:03;22.10;64.60
66271;DHT22;53063;39.614;8.814;2023-04-25T14:45:29;22.00;64.00
66271;DHT22;53063;39.614;8.814;2023-04-25T14:47:55;22.00;65.50
66271;DHT22;53063;39.614;8.814;2023-04-25T14:50:21;22.20;64.80
66271;DHT22;53063;39.614;8.814;2023-04-25T14:52:47;22.10;63.80
66271;DHT22;53063;39.614;8.814;2023-04-25T14:55:13;22.10;64.30
66271;DHT22;53063;39.614;8.814;2023-04-25T14:57:39;22.20;63.50
66271;DHT22;53063;39.614;8.814;2023-04-25T15:00:06;22.00;64.20
66271;DHT22;53063;39.614;8.814;2023-04-25T15:02:36;22.10;65.20
66271;DHT22;53063;39.614;8.814;2023-04-25T15:05:02;21.90;64.60
66271;DHT22;53063;39.614;8.814;2023-04-25T15:07:28;21.70;65.30
66271;DHT22;53063;39.614;8.814;2023-04-25T15:09:54;21.40;66.40
66271;DHT22;53063;39.614;8.814;2023-04-25T15:12:22;21.40;67.40
66271;DHT22;53063;39.614;8.814;2023-04-25T15:14:49;21.50;66.40
66271;DHT22;53063;39.614;8.814;2023-04-25T15:17:15;21.40;66.80
66271;DHT22;53063;39.614;8.814;2023-04-25T15:19:41;21.40;67.00
66271;DHT22;53063;39.614;8.814;2023-04-25T15:22:07;21.50;68.10
66271;DHT22;53063;39.614;8.814;2023-04-25T15:24:33;21.50;67.80
66271;DHT22;53063;39.614;8.814;2023-04-25T15:26:59;21.50;67.70
66271;DHT22;53063;39.614;8.814;2023-04-25T15:29:25;21.40;67.60
66271;DHT22;53063;39.614;8.814;2023-04-25T15:31:51;21.30;68.00
66271;DHT22;53063;39.614;8.814;2023-04-25T15:34:17;21.20;68.20
66271;DHT22;53063;39.614;8.814;2023-04-25T15:36:43;21.10;68.40
66271;DHT22;53063;39.614;8.814;2023-04-25T15:39:09;21.10;68.50
66271;DHT22;53063;39.614;8.814;2023-04-25T15:41:36;21.00;68.40
66271;DHT22;53063;39.614;8.814;2023-04-25T15:44:02;21.10;67.90
66271;DHT22;53063;39.614;8.814;2023-04-25T15:46:28;21.10;69.10
66271;DHT22;53063;39.614;8.814;2023-04-25T15:48:55;21.10;68.80
66271;DHT22;53063;39.614;8.814;2023-04-25T15:51:21;21.00;69.70